createdAt,value
2023-01-05T00:02:24.968Z,87.99
2023-01-05T00:07:28.529Z,88.12
2023-01-05T00:12:50.486Z,88.11
2023-01-05T00:18:12.199Z,88.25
2023-01-05T00:23:15.197Z,88.12
2023-01-05T00:28:18.037Z,88.30
2023-01-05T00:33:20.988Z,88.20
2023-01-05T00:38:23.864Z,88.21
2023-01-05T00:43:27.652Z,87.89
2023-01-05T00:48:30.253Z,88.05
2023-01-05T00:53:33.289Z,88.08
2023-01-05T00:58:36.671Z,88.21
2023-01-05T01:03:40.404Z,88.22
2023-01-05T01:08:43.268Z,88.11
2023-01-05T01:13:48.368Z,87.99
2023-01-05T01:18:53.616Z,88.07
2023-01-05T01:23:57.992Z,87.90
2023-01-05T01:29:01.594Z,88.40
2023-01-05T01:34:06.493Z,88.42
2023-01-05T01:39:10.472Z,88.54
2023-01-05T01:44:48.479Z,88.64
2023-01-05T01:49:54.873Z,88.46
2023-01-05T01:54:57.659Z,88.73
2023-01-05T02:00:06.090Z,88.53
2023-01-05T02:05:12.647Z,88.91
2023-01-05T02:10:22.049Z,88.78
2023-01-05T02:15:55.779Z,88.78
2023-01-05T02:21:10.371Z,88.93
2023-01-05T02:26:37.369Z,88.88
2023-01-05T02:31:45.098Z,88.74
2023-01-05T02:37:00.355Z,88.89
2023-01-05T02:42:13.152Z,89.01
2023-01-05T02:47:30.149Z,89.04
2023-01-05T02:52:42.667Z,89.00
2023-01-05T02:57:51.802Z,88.95
2023-01-05T03:03:02.514Z,88.73
2023-01-05T03:08:08.777Z,88.70
2023-01-05T03:13:30.941Z,88.70
2023-01-05T03:18:56.346Z,88.66
2023-01-05T03:24:18.239Z,88.71
2023-01-05T03:29:39.510Z,88.77
2023-01-05T03:35:17.552Z,88.71
2023-01-05T03:40:25.301Z,88.50
2023-01-05T03:45:41.944Z,88.82
2023-01-05T03:50:47.009Z,88.63
2023-01-05T03:55:50.812Z,88.69
2023-01-05T04:00:53.729Z,88.55
2023-01-05T04:05:56.810Z,88.58
2023-01-05T04:11:11.917Z,88.43
2023-01-05T04:16:15.288Z,88.60
2023-01-05T04:21:19.278Z,88.70
2023-01-05T04:26:21.489Z,88.78
2023-01-05T04:31:24.725Z,88.39
2023-01-05T04:36:27.482Z,88.46
2023-01-05T04:41:31.249Z,88.76
2023-01-05T04:46:35.986Z,88.57
2023-01-05T04:51:38.822Z,88.75
2023-01-05T04:56:41.175Z,88.27
2023-01-05T05:01:43.067Z,88.68
2023-01-05T05:06:46.292Z,88.89
2023-01-05T05:11:49.494Z,88.77
2023-01-05T05:16:52.593Z,89.01
2023-01-05T05:21:55.749Z,88.79
2023-01-05T05:26:58.636Z,88.88
2023-01-05T05:32:01.552Z,88.84
2023-01-05T05:37:03.915Z,88.88
2023-01-05T05:42:06.865Z,88.72
2023-01-05T05:47:09.209Z,88.73
2023-01-05T05:52:11.870Z,88.47
2023-01-05T05:57:14.821Z,88.59
2023-01-05T06:02:17.792Z,88.66
2023-01-05T06:07:20.069Z,88.49
2023-01-05T06:12:21.971Z,88.92
2023-01-05T06:17:25.988Z,88.50
2023-01-05T06:22:30.322Z,88.37
2023-01-05T06:27:33.609Z,88.40
2023-01-05T06:32:37.326Z,87.92
2023-01-05T06:37:40.731Z,87.98
2023-01-05T06:42:42.883Z,88.11
2023-01-05T06:47:45.649Z,88.02
2023-01-05T06:52:49.294Z,88.20
2023-01-05T06:58:00.260Z,88.22
2023-01-05T07:03:04.483Z,88.47
2023-01-05T07:08:07.740Z,88.39
2023-01-05T07:13:10.312Z,88.79
2023-01-05T07:18:12.680Z,88.52
2023-01-05T07:23:15.297Z,88.36
2023-01-05T07:28:18.483Z,88.06
2023-01-05T07:33:21.684Z,88.08
2023-01-05T07:38:24.838Z,88.06
2023-01-05T07:43:27.791Z,87.81
2023-01-05T07:48:29.898Z,87.55
2023-01-05T07:53:43.258Z,87.29
2023-01-05T07:58:48.808Z,86.94
2023-01-05T08:03:52.243Z,86.62
2023-01-05T08:08:57.413Z,86.36
2023-01-05T08:14:02.903Z,85.68
2023-01-05T08:23:39.355Z,85.57
2023-01-05T08:28:42.763Z,85.11
2023-01-05T08:33:45.928Z,84.95
2023-01-05T08:38:52.919Z,84.67
2023-01-05T08:43:58.728Z,84.71
2023-01-05T08:49:07.000Z,84.69
2023-01-05T08:54:10.436Z,84.56
2023-01-05T08:59:16.335Z,84.52
2023-01-05T09:04:21.358Z,84.52
2023-01-05T09:09:25.736Z,83.98
2023-01-05T09:14:29.875Z,83.97
2023-01-05T09:19:35.306Z,83.58
2023-01-05T09:24:39.463Z,83.41
2023-01-05T09:29:42.421Z,83.43
2023-01-05T09:34:48.000Z,83.31
2023-01-05T09:39:53.669Z,83.35
2023-01-05T09:45:03.491Z,83.30
2023-01-05T09:50:10.680Z,83.45
2023-01-05T09:55:20.191Z,82.90
2023-01-05T10:00:25.839Z,82.85
2023-01-05T10:05:30.789Z,82.31
2023-01-05T10:11:08.908Z,82.05
2023-01-05T10:16:18.341Z,81.70
2023-01-05T10:21:55.893Z,81.44
2023-01-05T10:27:25.833Z,81.12
2023-01-05T10:33:21.934Z,80.94
2023-01-05T10:38:40.387Z,80.82
2023-01-05T10:43:54.891Z,80.82
2023-01-05T10:49:00.122Z,80.35
2023-01-05T10:54:05.899Z,80.19
2023-01-05T10:59:11.519Z,80.42
2023-01-05T11:04:34.394Z,80.18
2023-01-05T11:09:45.629Z,79.89
2023-01-05T11:14:58.347Z,79.44
2023-01-05T11:20:05.374Z,79.01
2023-01-05T11:25:25.315Z,78.38
2023-01-05T11:30:29.822Z,77.78
2023-01-05T11:35:39.222Z,77.88
2023-01-05T11:40:44.257Z,77.89
2023-01-05T11:45:52.403Z,77.18
2023-01-05T11:50:59.938Z,76.65
2023-01-05T11:56:25.321Z,76.51
2023-01-05T12:01:55.194Z,76.78
2023-01-05T12:07:08.221Z,76.87
2023-01-05T12:12:36.673Z,76.87
2023-01-05T12:18:04.173Z,76.67
2023-01-05T12:23:41.711Z,76.62
2023-01-05T12:35:04.773Z,75.63
2023-01-05T12:40:24.318Z,75.52
2023-01-05T12:45:40.004Z,75.66
2023-01-05T12:51:05.593Z,75.62
2023-01-05T12:56:22.998Z,75.29
2023-01-05T13:01:30.185Z,75.13
2023-01-05T13:06:39.681Z,75.06
2023-01-05T13:12:06.859Z,75.20
2023-01-05T13:17:23.923Z,74.98
2023-01-05T13:22:31.426Z,75.20
2023-01-05T13:27:34.802Z,75.18
2023-01-05T13:33:06.065Z,74.64
2023-01-05T13:38:46.747Z,74.69
2023-01-05T13:44:03.495Z,74.82
2023-01-05T13:49:16.338Z,75.09
2023-01-05T13:54:59.944Z,75.00
2023-01-05T14:00:21.557Z,75.50
2023-01-05T14:05:34.103Z,75.35
2023-01-05T14:10:38.099Z,75.50
2023-01-05T14:15:44.385Z,75.60
2023-01-05T14:20:53.007Z,75.71
2023-01-05T14:25:59.747Z,75.74
2023-01-05T14:31:15.865Z,75.71
2023-01-05T14:36:43.425Z,75.93
2023-01-05T14:42:01.860Z,75.46
2023-01-05T14:47:06.652Z,75.92
2023-01-05T14:52:39.292Z,75.74
2023-01-05T14:57:54.262Z,76.12
2023-01-05T15:09:01.825Z,76.45
2023-01-05T15:14:32.222Z,76.78
2023-01-05T15:19:54.371Z,76.79
2023-01-05T15:25:27.366Z,76.91
2023-01-05T15:30:43.242Z,77.19
2023-01-05T15:35:53.755Z,77.02
2023-01-05T15:41:12.143Z,77.32
2023-01-05T15:46:21.334Z,77.23
2023-01-05T15:51:28.800Z,77.49
2023-01-05T15:56:35.365Z,77.17
2023-01-05T16:01:39.045Z,77.51
2023-01-05T16:06:47.001Z,77.84
2023-01-05T16:11:53.622Z,78.06
2023-01-05T16:17:08.281Z,78.37
2023-01-05T16:22:27.268Z,78.62
2023-01-05T16:27:39.542Z,78.95
2023-01-05T16:32:42.694Z,78.95
2023-01-05T16:37:46.321Z,78.66
2023-01-05T16:42:50.496Z,78.81
2023-01-05T16:47:54.087Z,78.60
2023-01-05T16:53:05.341Z,78.63
2023-01-05T16:58:29.395Z,78.81
2023-01-05T17:03:32.663Z,78.90
2023-01-05T17:08:38.472Z,78.90
2023-01-05T17:14:01.957Z,78.68
2023-01-05T17:19:20.457Z,78.90
2023-01-05T17:24:23.685Z,78.44
2023-01-05T17:29:30.872Z,78.49
2023-01-05T17:34:35.843Z,78.83
2023-01-05T17:39:40.098Z,78.71
2023-01-05T17:44:42.935Z,78.97
2023-01-05T17:49:45.879Z,78.96
2023-01-05T17:54:48.328Z,78.81
2023-01-05T17:59:51.017Z,78.67
2023-01-05T18:04:56.592Z,78.65
2023-01-05T18:10:00.093Z,78.60
2023-01-05T18:15:08.040Z,78.61
2023-01-05T18:20:14.848Z,78.60
2023-01-05T18:25:20.134Z,78.47
2023-01-05T18:30:22.952Z,78.64
2023-01-05T18:35:27.203Z,78.50
2023-01-05T18:40:33.150Z,78.42
2023-01-05T18:45:39.421Z,78.42
2023-01-05T18:50:51.491Z,78.53
2023-01-05T18:55:55.202Z,78.82
2023-01-05T19:01:02.878Z,78.74
2023-01-05T19:06:16.221Z,78.83
2023-01-05T19:11:27.832Z,78.92
2023-01-05T19:16:35.603Z,78.75
2023-01-05T19:21:41.655Z,78.83
2023-01-05T19:26:46.386Z,79.04
2023-01-05T19:31:49.288Z,79.04
2023-01-05T19:36:52.401Z,78.96
2023-01-05T19:41:55.238Z,79.02
2023-01-05T19:46:57.912Z,79.39
2023-01-05T19:52:00.736Z,79.23
2023-01-05T19:57:03.288Z,79.20
2023-01-05T20:02:06.534Z,79.48
2023-01-05T20:07:11.544Z,79.45
2023-01-05T20:12:15.655Z,79.44
2023-01-05T20:17:19.773Z,79.56
2023-01-05T20:22:23.965Z,79.86
2023-01-05T20:27:27.561Z,79.71
2023-01-05T20:32:36.407Z,79.99
2023-01-05T20:37:41.527Z,80.20
2023-01-05T20:42:44.962Z,80.35
2023-01-05T20:47:48.715Z,80.34
2023-01-05T20:52:51.273Z,80.51
2023-01-05T20:57:54.119Z,80.63
2023-01-05T21:02:58.407Z,80.79
2023-01-05T21:08:04.377Z,80.82
2023-01-05T21:13:30.519Z,80.94
2023-01-05T21:18:34.550Z,81.10
2023-01-05T21:23:39.513Z,81.12
2023-01-05T21:28:44.800Z,81.05
2023-01-05T21:33:51.005Z,80.96
2023-01-05T21:39:06.021Z,81.22
2023-01-05T21:44:14.681Z,81.22
2023-01-05T21:49:24.195Z,81.33
2023-01-05T21:54:51.432Z,81.22
2023-01-05T21:59:54.954Z,81.01
2023-01-05T22:04:58.604Z,81.02
2023-01-05T22:10:04.338Z,80.84
2023-01-05T22:15:13.934Z,80.65
2023-01-05T22:20:23.357Z,80.50
2023-01-05T22:25:31.743Z,80.47
2023-01-05T22:30:36.667Z,80.55
2023-01-05T22:35:43.504Z,80.48
2023-01-05T22:40:57.174Z,80.26
2023-01-05T22:46:06.431Z,80.16
2023-01-05T22:51:18.366Z,79.94
2023-01-05T22:56:29.971Z,79.86
2023-01-05T23:01:38.938Z,79.81
2023-01-05T23:06:44.939Z,79.89
2023-01-05T23:11:49.004Z,79.74
2023-01-05T23:16:53.266Z,79.73
2023-01-05T23:21:57.416Z,79.72
2023-01-05T23:27:00.418Z,79.80
2023-01-05T23:32:04.480Z,79.59
2023-01-05T23:37:06.726Z,79.46
2023-01-05T23:42:30.529Z,79.51
2023-01-05T23:47:33.851Z,79.42
2023-01-05T23:52:37.767Z,79.35
2023-01-05T23:57:40.798Z,79.31
